Terminal Aerodrome Forecast
Issued by NWS

Home | Current Version | Previous Version | Text Only | Print | Product List | Glossary On
Versions: 1 2 3 4 5 6 7 8 9 10 11 12 13 14 15 16 17 18 19 20 21 22 23 24 25 26 27 28 29 30 31 32 33 34 35 36 37 38 39 40 41 42 43 44 45 46
000
FTUS44 KLIX 180540
TAFHUM
TAF
KHUM 180540Z 1806/1906 13005KT 4SM BR BKN006
     FM180800 14005KT 1SM BR OVC004
     FM181000 14005KT 1/4SM FG VV002
     FM181600 15006KT 2SM BR BKN003
     FM181700 15007KT P6SM VCSH BKN020
     FM190100 13007KT 5SM BR BKN008=

USA.gov is the U.S. government's official web portal to all federal, state and local government web resources and services.